Time;durP1;ratioP1;P1;durP2;ratioP2;P2;SDS_P1;SDS_P2;PMS_P1;PMS_P2;Temp;Humidity;BMP_temperature;BMP_pressure;BME280_temperature;BME280_humidity;BME280_pressure;Samples;Min_cycle;Max_cycle;Signal;HPM_P1;HPM_P2
2021/11/01 00:00:22;;;;;;;17.75;8.90;;;;;;;17.11;94.68;100992.88;5052757;28;20045;-71
2021/11/01 00:02:51;;;;;;;13.98;7.88;;;;;;;17.13;94.77;100985.75;5061042;28;20129;-71
2021/11/01 00:05:21;;;;;;;16.55;7.72;;;;;;;17.14;94.72;100979.50;5058360;28;20037;-71
2021/11/01 00:07:48;;;;;;;16.17;8.85;;;;;;;17.14;94.76;100982.16;5060644;28;20040;-71
2021/11/01 00:10:16;;;;;;;16.92;7.28;;;;;;;17.15;94.75;100981.28;5056627;28;20060;-72
2021/11/01 00:12:44;;;;;;;11.90;7.00;;;;;;;17.18;94.61;100975.94;5060513;28;20471;-71
2021/11/01 00:15:12;;;;;;;14.63;7.68;;;;;;;17.17;94.62;100968.81;5061941;28;20061;-71
2021/11/01 00:17:41;;;;;;;13.07;6.90;;;;;;;17.19;94.57;100980.38;5046398;28;20044;-71
2021/11/01 00:20:10;;;;;;;14.40;7.05;;;;;;;17.17;94.44;100971.47;5066349;28;20409;-71
2021/11/01 00:22:38;;;;;;;14.38;8.05;;;;;;;17.18;94.46;100978.59;5059446;28;20040;-71
2021/11/01 00:25:08;;;;;;;12.18;6.93;;;;;;;17.17;94.42;100963.47;5057478;28;20524;-71
2021/11/01 00:27:35;;;;;;;18.48;8.90;;;;;;;17.13;94.41;100970.59;5066427;28;20492;-71
2021/11/01 00:30:05;;;;;;;14.43;7.05;;;;;;;17.12;94.53;100971.53;5061483;28;20047;-71
2021/11/01 00:32:32;;;;;;;18.05;9.07;;;;;;;17.12;94.74;100978.66;5042870;28;20052;-71
2021/11/01 00:35:02;;;;;;;15.57;7.30;;;;;;;17.17;94.84;100966.16;5061916;28;20045;-71
2021/11/01 00:37:30;;;;;;;14.82;7.72;;;;;;;17.18;95.02;100973.25;5057123;28;21119;-71
2021/11/01 00:40:00;;;;;;;13.52;7.68;;;;;;;17.23;95.06;100965.22;5054568;28;20615;-71
2021/11/01 00:42:29;;;;;;;12.25;7.03;;;;;;;17.24;95.19;100967.88;5057349;28;20048;-71
2021/11/01 00:44:57;;;;;;;16.05;8.82;;;;;;;17.23;95.01;100970.53;5063221;28;20147;-70
2021/11/01 00:47:25;;;;;;;15.15;7.93;;;;;;;17.24;94.94;100978.53;5060826;28;20057;-70
2021/11/01 00:49:54;;;;;;;15.25;9.15;;;;;;;17.22;94.94;100974.09;5066384;28;20166;-70
2021/11/01 00:52:26;;;;;;;13.88;7.60;;;;;;;17.22;95.06;100969.66;5056842;28;20045;-70
2021/11/01 00:54:58;;;;;;;13.15;6.70;;;;;;;17.25;95.04;100961.63;5067462;28;20040;-70
2021/11/01 00:57:27;;;;;;;13.77;7.07;;;;;;;17.23;95.17;100962.53;5056897;28;20040;-69
2021/11/01 00:59:54;;;;;;;14.13;7.85;;;;;;;17.17;95.17;100946.59;5048676;28;20399;-70
2021/11/01 01:02:22;;;;;;;12.40;7.13;;;;;;;17.19;95.26;100956.34;5050819;28;20534;-71
2021/11/01 01:04:50;;;;;;;13.90;7.22;;;;;;;17.27;95.48;100946.47;5053751;28;20064;-70
2021/11/01 01:07:17;;;;;;;12.45;6.95;;;;;;;17.29;95.53;100942.03;5055179;28;20488;-70
2021/11/01 01:09:47;;;;;;;14.23;8.32;;;;;;;17.27;95.46;100940.25;5060641;28;20040;-70
2021/11/01 01:12:15;;;;;;;14.20;7.03;;;;;;;17.19;95.53;100940.34;5054602;28;20036;-70
2021/11/01 01:14:45;;;;;;;14.93;7.93;;;;;;;17.13;95.58;100933.25;5051381;28;20759;-71
2021/11/01 01:17:13;;;;;;;13.48;6.75;;;;;;;17.12;95.65;100936.84;5060409;28;20384;-71
2021/11/01 01:19:50;;;;;;;13.20;7.05;;;;;;;17.12;95.69;100938.63;5055082;28;20056;-71
2021/11/01 01:25:14;;;;;;;16.73;7.38;;;;;;;17.11;95.82;100936.84;5058054;28;20037;-71
2021/11/01 01:27:43;;;;;;;17.13;7.47;;;;;;;17.06;95.72;100933.34;5052281;28;20527;-70
2021/11/01 01:30:12;;;;;;;15.18;7.30;;;;;;;17.09;95.83;100930.63;5056506;28;20123;-71
2021/11/01 01:32:40;;;;;;;12.15;6.82;;;;;;;17.12;95.96;100919.97;5038536;28;20515;-71
2021/11/01 01:35:09;;;;;;;15.48;7.95;;;;;;;17.16;95.96;100920.78;5033172;28;20424;-71
2021/11/01 01:37:37;;;;;;;11.80;6.53;;;;;;;17.17;96.06;100926.13;5039152;28;20638;-71
2021/11/01 01:40:08;;;;;;;11.48;6.57;;;;;;;17.20;96.03;100926.09;5054876;28;20075;-71
2021/11/01 01:42:36;;;;;;;14.63;8.35;;;;;;;17.21;95.94;100930.53;5058114;28;20123;-71
2021/11/01 01:45:06;;;;;;;12.18;6.93;;;;;;;17.23;95.88;100928.75;5065045;28;20047;-71
2021/11/01 01:47:34;;;;;;;13.48;7.57;;;;;;;17.26;95.80;100931.41;5058711;28;20063;-72
2021/11/01 01:50:04;;;;;;;12.10;6.47;;;;;;;17.27;95.78;100929.59;5061763;28;20402;-71
2021/11/01 01:52:31;;;;;;;14.35;7.97;;;;;;;17.29;95.75;100928.69;5046474;28;20055;-71
2021/11/01 01:54:59;;;;;;;12.05;7.40;;;;;;;17.29;95.73;100927.78;5040924;28;20040;-71
2021/11/01 01:57:28;;;;;;;13.30;7.55;;;;;;;17.31;95.73;100924.22;5035389;28;20065;-71
2021/11/01 01:59:56;;;;;;;14.80;7.40;;;;;;;17.34;95.93;100926.84;5040218;28;20041;-71
2021/11/01 02:02:24;;;;;;;15.82;8.60;;;;;;;17.37;95.92;100921.50;5041907;28;20041;-71
2021/11/01 02:04:52;;;;;;;19.55;9.90;;;;;;;17.39;95.96;100924.16;5044398;28;21578;-71
2021/11/01 02:07:25;;;;;;;12.30;6.53;;;;;;;17.42;95.96;100921.44;5030941;28;20029;-71
2021/11/01 02:10:02;;;;;;;12.38;7.30;;;;;;;17.43;96.05;100916.09;5028776;28;20091;-71
2021/11/01 02:12:35;;;;;;;14.82;7.60;;;;;;;17.39;95.92;100919.66;5042859;28;20045;-71
2021/11/01 02:15:08;;;;;;;12.02;6.75;;;;;;;17.41;96.05;100917.00;5050468;28;20505;-71
2021/11/01 02:17:36;;;;;;;13.38;8.30;;;;;;;17.42;95.99;100916.09;5044522;28;20508;-71
2021/11/01 02:20:08;;;;;;;14.35;8.13;;;;;;;17.39;95.97;100926.81;5038695;28;20048;-72
2021/11/01 02:22:43;;;;;;;14.15;7.65;;;;;;;17.39;95.93;100934.84;5036811;28;20037;-71
2021/11/01 02:25:16;;;;;;;13.65;7.85;;;;;;;17.40;96.13;100926.78;5042294;28;20041;-70
2021/11/01 02:27:46;;;;;;;16.95;9.45;;;;;;;17.38;96.10;100925.94;5032552;28;20036;-70
2021/11/01 02:30:15;;;;;;;14.35;8.80;;;;;;;17.40;96.26;100926.78;5038654;28;20045;-69
2021/11/01 02:32:45;;;;;;;12.35;7.57;;;;;;;17.40;96.31;100923.22;5035891;28;20049;-69
2021/11/01 02:35:13;;;;;;;16.90;8.55;;;;;;;17.35;96.64;100927.72;5047142;28;20045;-70
2021/11/01 02:37:42;;;;;;;18.52;10.23;;;;;;;17.33;96.44;100921.50;5039839;28;20428;-70
2021/11/01 02:40:10;;;;;;;21.67;9.82;;;;;;;17.30;96.55;100918.91;5031896;28;20041;-70
2021/11/01 02:42:40;;;;;;;17.38;8.38;;;;;;;17.26;96.64;100926.06;5058251;28;20048;-70
2021/11/01 02:45:12;;;;;;;15.30;8.43;;;;;;;17.22;96.62;100918.06;5061220;28;20155;-70
2021/11/01 02:47:40;;;;;;;19.95;10.73;;;;;;;17.21;96.70;100933.19;5061946;28;20618;-71
2021/11/01 02:50:12;;;;;;;22.08;10.07;;;;;;;17.24;96.76;100929.63;5052186;28;20041;-71
2021/11/01 02:52:40;;;;;;;18.77;10.65;;;;;;;17.27;96.83;100926.91;5044743;28;20086;-71
2021/11/01 02:55:10;;;;;;;21.27;10.82;;;;;;;17.28;96.96;100921.56;5058501;28;20049;-71
2021/11/01 02:57:39;;;;;;;21.00;9.20;;;;;;;17.33;97.07;100924.19;5062105;28;20047;-72
2021/11/01 03:00:12;;;;;;;22.20;11.45;;;;;;;17.38;97.16;100925.06;5054778;28;20503;-72
2021/11/01 03:02:39;;;;;;;17.45;8.50;;;;;;;17.41;97.30;100933.00;5061594;28;20037;-71
2021/11/01 03:05:11;;;;;;;20.73;9.93;;;;;;;17.44;97.51;100923.22;5049177;28;20106;-71
2021/11/01 03:07:40;;;;;;;18.10;9.13;;;;;;;17.47;97.63;100928.50;5054811;28;20064;-71
2021/11/01 03:10:09;;;;;;;20.00;10.25;;;;;;;17.50;97.63;100925.81;5054007;28;20049;-72
2021/11/01 03:12:38;;;;;;;23.45;10.20;;;;;;;17.54;97.77;100922.19;5058504;28;20036;-72
2021/11/01 03:15:12;;;;;;;18.83;9.40;;;;;;;17.57;97.80;100917.75;5054806;28;20041;-72
2021/11/01 03:17:42;;;;;;;25.65;10.85;;;;;;;17.61;97.89;100919.50;5054518;28;20059;-72
2021/11/01 03:20:13;;;;;;;19.27;9.93;;;;;;;17.64;98.05;100916.81;5049322;28;20068;-72
2021/11/01 03:22:42;;;;;;;19.58;9.25;;;;;;;17.68;98.23;100918.53;5051297;28;20044;-73
2021/11/01 03:25:25;;;;;;;17.38;10.05;;;;;;;17.72;98.18;100920.28;5048730;28;20048;-72
2021/11/01 03:27:55;;;;;;;23.35;10.05;;;;;;;17.73;98.34;100924.69;5049055;28;20510;-73
2021/11/01 03:30:26;;;;;;;19.42;9.45;;;;;;;17.74;98.44;100913.13;5060528;28;20539;-72
2021/11/01 03:32:54;;;;;;;17.80;9.77;;;;;;;17.75;98.35;100922.91;5054423;28;20541;-72
2021/11/01 03:35:24;;;;;;;19.20;9.02;;;;;;;17.75;98.35;100913.09;5063923;28;20071;-72
2021/11/01 03:37:56;;;;;;;16.52;9.75;;;;;;;17.78;98.34;100913.09;5063377;28;20052;-72
2021/11/01 03:40:27;;;;;;;17.38;9.13;;;;;;;17.80;98.43;100913.94;5053461;28;20049;-73
2021/11/01 03:42:56;;;;;;;14.32;7.82;;;;;;;17.83;98.24;100916.59;5063267;28;20044;-72
2021/11/01 03:45:27;;;;;;;14.77;7.00;;;;;;;17.84;98.43;100917.47;5058296;28;20516;-73
2021/11/01 03:48:01;;;;;;;12.90;7.38;;;;;;;17.87;98.29;100914.75;5061980;28;20043;-74
2021/11/01 03:50:34;;;;;;;18.17;8.10;;;;;;;17.87;98.21;100918.31;5045724;28;20168;-71
2021/11/01 03:53:02;;;;;;;14.75;8.18;;;;;;;17.88;98.29;100916.53;5033802;28;20532;-72
2021/11/01 03:55:30;;;;;;;17.00;9.90;;;;;;;17.89;98.33;100920.97;5038112;28;20060;-73
2021/11/01 03:57:59;;;;;;;16.80;10.13;;;;;;;17.88;98.24;100911.19;5038149;28;20377;-72
2021/11/01 04:00:30;;;;;;;18.27;11.93;;;;;;;17.87;98.37;100923.66;5041182;28;20643;-72
2021/11/01 04:02:58;;;;;;;24.13;13.82;;;;;;;17.85;98.32;100920.09;5039672;28;20037;-72
2021/11/01 04:05:26;;;;;;;19.70;12.38;;;;;;;17.84;98.23;100930.81;5047624;28;20508;-73
2021/11/01 04:07:54;;;;;;;24.10;12.93;;;;;;;17.81;98.16;100931.72;5038077;28;20041;-73
2021/11/01 04:10:22;;;;;;;24.73;13.15;;;;;;;17.81;98.08;100936.19;5033675;28;20042;-72
2021/11/01 04:12:50;;;;;;;27.67;12.32;;;;;;;17.81;97.88;100938.84;5051909;28;20029;-72
2021/11/01 04:15:20;;;;;;;26.17;12.93;;;;;;;17.80;97.85;100937.09;5059412;28;20126;-72
2021/11/01 04:17:53;;;;;;;18.02;12.63;;;;;;;17.79;97.82;100940.66;5067373;28;20044;-72
2021/11/01 04:20:36;;;;;;;21.67;12.35;;;;;;;17.77;97.63;100942.47;5058007;28;20393;-72
2021/11/01 04:23:05;;;;;;;19.45;11.80;;;;;;;17.72;97.31;100944.31;5063467;28;20032;-72
2021/11/01 04:25:33;;;;;;;19.13;11.93;;;;;;;17.72;97.27;100949.66;5057683;28;20119;-73
2021/11/01 04:28:01;;;;;;;22.10;10.98;;;;;;;17.71;97.08;100953.22;5057902;28;20055;-74
2021/11/01 04:30:35;;;;;;;21.80;12.02;;;;;;;17.72;97.01;100955.00;5044020;28;20859;-72
2021/11/01 04:33:06;;;;;;;19.45;13.02;;;;;;;17.73;96.88;100957.63;5063061;28;20492;-72
2021/11/01 04:35:36;;;;;;;19.52;11.45;;;;;;;17.71;96.75;100964.78;5051361;28;20037;-72
2021/11/01 04:38:11;;;;;;;21.88;11.32;;;;;;;17.71;96.53;100966.56;5042333;28;20531;-72
2021/11/01 04:43:55;;;;;;;20.90;12.43;;;;;;;17.71;96.42;100971.91;5034942;28;20092;-73
2021/11/01 04:54:37;;;;;;;;;;;;;;;17.63;95.88;100981.78;5044224;28;20045;-71
2021/11/01 04:57:07;;;;;;;20.40;10.35;;;;;;;17.63;96.02;100982.66;5034381;28;20377;-70
2021/11/01 04:59:35;;;;;;;21.50;10.77;;;;;;;17.67;96.05;100991.53;5039499;28;20073;-71
2021/11/01 05:02:03;;;;;;;22.33;12.00;;;;;;;17.68;96.14;100979.94;5035499;28;20044;-72
2021/11/01 05:04:36;;;;;;;16.92;10.32;;;;;;;17.69;96.11;100987.06;5055092;28;20041;-70
2021/11/01 05:07:05;;;;;;;18.38;11.90;;;;;;;17.68;95.98;100980.84;5031567;28;20049;-71
2021/11/01 05:09:35;;;;;;;21.55;12.48;;;;;;;17.68;96.03;100991.50;5044051;28;20148;-71
2021/11/01 05:12:17;;;;;;;20.42;11.82;;;;;;;17.69;95.75;100995.97;5043782;28;20041;-71
2021/11/01 05:14:53;;;;;;;19.27;11.90;;;;;;;17.70;95.74;100987.06;5043156;28;20048;-73
2021/11/01 05:20:08;;;;;;;22.90;12.18;;;;;;;17.72;95.37;100989.72;5044121;28;20396;-71
2021/11/01 05:22:43;;;;;;;21.05;12.57;;;;;;;17.72;95.37;100989.72;5035700;28;20061;-71
2021/11/01 05:25:14;;;;;;;21.58;12.27;;;;;;;17.73;95.29;100987.00;5044034;28;20057;-71
2021/11/01 05:30:31;;;;;;;21.60;12.40;;;;;;;17.76;94.95;100994.13;5056111;28;20493;-71
2021/11/01 05:33:04;;;;;;;25.70;13.10;;;;;;;17.77;94.84;100985.22;5064952;28;20934;-71
2021/11/01 05:35:34;;;;;;;25.05;14.00;;;;;;;17.81;94.83;100990.50;5055511;28;20393;-71
2021/11/01 05:38:02;;;;;;;21.58;11.63;;;;;;;17.85;94.76;100994.03;5050541;28;20581;-71
2021/11/01 05:40:29;;;;;;;22.20;13.38;;;;;;;17.89;94.73;100998.44;5047700;28;20429;-70
2021/11/01 05:42:57;;;;;;;24.38;13.32;;;;;;;17.91;94.64;101002.88;5049279;28;20076;-71
2021/11/01 05:45:25;;;;;;;21.83;12.10;;;;;;;17.94;94.65;101004.59;5062316;28;20052;-71
2021/11/01 05:47:57;;;;;;;20.13;11.68;;;;;;;17.96;94.49;101001.91;5063292;28;20086;-71
2021/11/01 05:50:25;;;;;;;22.67;12.57;;;;;;;17.96;94.31;100994.78;5056017;28;20053;-70
2021/11/01 05:52:56;;;;;;;20.48;12.65;;;;;;;17.99;94.20;101007.22;5047040;28;20045;-70
2021/11/01 05:55:33;;;;;;;20.42;12.15;;;;;;;17.99;93.90;101002.75;5055690;28;20528;-70
2021/11/01 05:58:08;;;;;;;19.60;12.32;;;;;;;18.03;93.65;101015.19;5047187;28;20110;-71
2021/11/01 06:00:46;;;;;;;21.15;12.38;;;;;;;18.06;93.50;101023.16;5029961;28;20117;-70
2021/11/01 06:03:15;;;;;;;23.60;12.40;;;;;;;18.08;93.31;101028.50;5052312;28;20037;-70
2021/11/01 06:13:57;;;;;;;18.85;12.32;;;;;;;18.22;93.02;101021.22;5055189;28;20036;-72
2021/11/01 06:16:25;;;;;;;25.70;13.27;;;;;;;18.26;92.95;101028.28;5061625;28;20045;-71
2021/11/01 06:18:53;;;;;;;18.35;12.60;;;;;;;18.31;92.95;101037.16;5061225;28;20063;-72
2021/11/01 06:21:20;;;;;;;23.15;12.50;;;;;;;18.35;92.83;101032.66;5055351;28;20043;-71
2021/11/01 06:23:55;;;;;;;21.35;12.40;;;;;;;18.38;92.80;101041.50;5059545;28;20041;-71
2021/11/01 06:26:25;;;;;;;20.95;11.75;;;;;;;18.41;92.79;101041.47;5055439;28;20049;-72
2021/11/01 06:28:57;;;;;;;22.63;12.77;;;;;;;18.41;92.88;101049.50;5058239;28;20465;-72
2021/11/01 06:31:28;;;;;;;21.00;12.52;;;;;;;18.47;92.69;101048.53;5054406;28;20052;-72
2021/11/01 06:45:18;;;;;;;16.92;11.25;;;;;;;18.56;92.72;101057.38;5033789;28;20433;-71
2021/11/01 06:50:47;;;;;;;17.80;12.35;;;;;;;18.61;92.23;101074.25;5060301;28;20060;-71
2021/11/01 06:53:45;;;;;;;22.27;12.57;;;;;;;18.56;91.92;101080.56;5059723;28;20033;-71
2021/11/01 06:56:35;;;;;;;21.17;11.75;;;;;;;18.54;91.11;101087.66;5051032;28;20068;-72
2021/11/01 07:15:42;;;;;;;16.70;10.57;;;;;;;20.01;94.25;101085.53;5053657;28;20292;-72
2021/11/01 07:18:14;;;;;;;12.80;8.75;;;;;;;20.26;94.50;101092.22;5061235;28;20132;-72
2021/11/01 07:20:50;;;;;;;14.98;9.43;;;;;;;20.42;94.43;101087.44;5057430;28;20035;-71
2021/11/01 08:21:50;;;;;;;19.58;11.68;;;;;;;20.83;77.34;101117.94;5056225;28;20040;-71
2021/11/01 08:30:10;;;;;;;17.73;10.50;;;;;;;20.52;75.27;101109.63;5036122;28;20049;-71
2021/11/01 08:38:20;;;;;;;17.83;9.80;;;;;;;21.05;75.76;101098.66;5049383;28;20041;-72
2021/11/01 08:46:49;;;;;;;18.63;10.40;;;;;;;21.70;74.87;101095.38;5062706;28;20055;-73
2021/11/01 09:20:03;;;;;;;17.73;9.90;;;;;;;21.62;71.80;101098.25;4986094;28;20390;-74
2021/11/01 09:23:04;;;;;;;15.60;9.55;;;;;;;21.70;70.87;101095.38;5054998;28;20178;-73
2021/11/01 09:28:27;;;;;;;15.23;9.73;;;;;;;21.58;70.44;101093.00;5029598;28;20556;-73
2021/11/01 09:36:37;;;;;;;17.15;10.55;;;;;;;22.03;69.15;101091.88;5064343;28;20048;-73
2021/11/01 09:39:29;;;;;;;19.30;10.77;;;;;;;21.77;68.43;101091.63;5065386;28;20515;-73
2021/11/01 09:42:00;;;;;;;17.98;9.73;;;;;;;21.55;68.26;101085.88;5057658;28;20044;-74
2021/11/01 09:44:30;;;;;;;17.85;9.95;;;;;;;21.35;68.66;101083.69;5063727;28;20055;-73
2021/11/01 09:46:58;;;;;;;21.05;11.20;;;;;;;21.26;68.79;101086.59;5065881;28;20458;-73
2021/11/01 09:49:26;;;;;;;18.50;10.75;;;;;;;21.22;68.83;101084.00;5050932;28;20049;-74
2021/11/01 09:51:57;;;;;;;23.08;11.00;;;;;;;21.28;68.95;101079.38;5064131;28;20039;-73
2021/11/01 09:54:26;;;;;;;16.38;12.05;;;;;;;21.25;68.63;101092.00;5052369;28;20051;-73
2021/11/01 09:57:01;;;;;;;17.60;10.55;;;;;;;21.17;68.28;101086.78;5066040;28;20201;-74
2021/11/01 09:59:31;;;;;;;17.77;11.50;;;;;;;21.21;68.21;101074.16;5056347;28;20044;-74
2021/11/01 10:02:00;;;;;;;18.17;10.57;;;;;;;21.30;69.12;101073.97;5065893;28;20055;-73
2021/11/01 10:04:30;;;;;;;18.45;10.32;;;;;;;21.62;69.56;101078.56;5062932;28;20045;-73
2021/11/01 10:07:21;;;;;;;16.02;10.13;;;;;;;21.72;69.17;101069.34;5059359;28;20762;-73
2021/11/01 10:09:50;;;;;;;15.07;9.40;;;;;;;21.82;69.13;101076.25;5048216;28;20060;-73
2021/11/01 10:12:26;;;;;;;13.90;9.85;;;;;;;22.14;68.99;101059.31;5036031;28;20041;-73
2021/11/01 10:14:58;;;;;;;14.35;9.20;;;;;;;22.30;68.17;101067.84;5040788;28;20041;-73
2021/11/01 10:17:36;;;;;;;19.48;10.70;;;;;;;22.43;67.42;101062.06;5042606;28;20053;-73
2021/11/01 10:20:10;;;;;;;14.13;9.05;;;;;;;22.49;66.68;101063.72;5057866;28;20182;-74
2021/11/01 10:22:39;;;;;;;;;;;;;;;22.23;66.66;101062.63;5058312;28;20033;-74
2021/11/01 10:25:15;;;;;;;19.67;10.23;;;;;;;22.14;67.19;101062.00;5058059;28;19924;-78
2021/11/01 10:27:47;;;;;;;15.23;10.52;;;;;;;22.03;66.36;101062.28;5052356;28;20040;-74
2021/11/01 10:30:15;;;;;;;17.65;10.75;;;;;;;21.90;66.14;101070.69;5063396;28;20415;-73
2021/11/01 10:32:45;;;;;;;21.73;10.98;;;;;;;21.68;66.08;101064.97;5045841;28;20041;-73
2021/11/01 10:35:20;;;;;;;20.85;10.90;;;;;;;21.58;66.05;101060.75;5062855;28;20045;-73
2021/11/01 10:37:59;;;;;;;21.08;11.35;;;;;;;21.60;66.35;101056.19;5049562;28;20029;-73
2021/11/01 10:40:28;;;;;;;16.08;10.60;;;;;;;21.70;66.68;101049.69;5057760;28;20124;-73
2021/11/01 10:43:09;;;;;;;17.48;10.63;;;;;;;21.80;66.69;101054.78;5065464;28;20047;-73
2021/11/01 10:46:09;;;;;;;18.77;10.55;;;;;;;21.78;66.47;101051.28;5041800;28;20064;-73
2021/11/01 11:13:40;;;;;;;14.93;10.38;;;;;;;21.63;66.06;101045.41;5058138;28;20094;-70
2021/11/01 11:16:17;;;;;;;17.75;10.90;;;;;;;21.64;65.70;101052.53;5057487;28;20074;-73
2021/11/01 11:18:55;;;;;;;14.57;10.23;;;;;;;21.69;65.67;101043.44;5052599;28;20040;-73
2021/11/01 11:38:24;;;;;;;19.63;10.57;;;;;;;22.21;64.54;101045.66;5061769;28;20067;-71
2021/11/01 11:43:49;;;;;;;14.82;10.43;;;;;;;22.25;63.79;101033.88;5048310;28;20053;-74
2021/11/01 11:49:17;;;;;;;18.77;10.63;;;;;;;22.05;62.86;101036.25;5057080;28;20051;-74
2021/11/01 11:51:55;;;;;;;18.15;11.20;;;;;;;21.78;63.33;101031.56;5051518;28;20064;-74
2021/11/01 11:54:34;;;;;;;20.30;10.93;;;;;;;21.63;63.58;101042.72;5054321;28;20033;-73
2021/11/01 11:57:04;;;;;;;21.63;11.10;;;;;;;21.63;63.77;101042.72;5060151;28;20041;-74
2021/11/01 11:59:38;;;;;;;16.58;10.23;;;;;;;21.60;63.76;101040.97;5045491;28;20525;-73
2021/11/01 12:02:11;;;;;;;21.13;10.90;;;;;;;21.57;63.70;101043.75;5040084;28;20041;-73
2021/11/01 12:04:45;;;;;;;17.15;10.98;;;;;;;21.42;64.11;101049.50;5046550;28;20041;-73
2021/11/01 12:07:14;;;;;;;;;;;;;;;21.27;64.30;101045.38;5040608;28;20049;-73
2021/11/01 12:09:52;;;;;;;19.00;10.07;;;;;;;21.25;64.32;101038.28;5030573;28;20526;-73
2021/11/01 12:12:34;;;;;;;18.35;11.48;;;;;;;21.17;64.15;101038.47;5050809;28;20037;-73
2021/11/01 12:17:52;;;;;;;15.80;10.75;;;;;;;21.19;64.71;101036.63;5048536;28;20033;-74
2021/11/01 12:20:22;;;;;;;17.23;11.75;;;;;;;21.23;64.74;101043.69;5059752;28;20544;-74
2021/11/01 12:22:52;;;;;;;21.85;11.38;;;;;;;21.24;64.59;101039.19;5060063;28;20037;-73
2021/11/01 12:25:26;;;;;;;15.75;10.57;;;;;;;21.25;64.49;101041.84;5064160;28;20094;-74
2021/11/01 12:28:03;;;;;;;15.45;10.40;;;;;;;21.26;64.24;101049.00;5067466;28;20059;-74
2021/11/01 12:30:48;;;;;;;20.05;11.90;;;;;;;21.23;64.09;101049.06;5052715;28;20055;-74
2021/11/01 12:33:18;;;;;;;16.80;9.82;;;;;;;21.15;64.55;101044.72;5040693;28;20485;-74
2021/11/01 12:35:49;;;;;;;18.15;11.60;;;;;;;21.10;64.20;101047.53;5030332;28;20036;-74
2021/11/01 12:38:21;;;;;;;18.73;11.13;;;;;;;21.14;63.93;101053.72;5039779;28;20095;-74
2021/11/01 12:40:55;;;;;;;17.77;10.60;;;;;;;21.13;64.02;101042.13;5033910;28;20053;-74
2021/11/01 12:43:47;;;;;;;18.17;10.85;;;;;;;21.12;64.09;101048.41;5035045;28;20037;-74
2021/11/01 12:57:42;;;;;;;17.83;10.93;;;;;;;21.10;65.00;101042.16;5012549;28;20045;-73
2021/11/01 13:00:12;;;;;;;19.63;10.38;;;;;;;21.14;64.94;101051.03;5050740;28;20496;-73
2021/11/01 13:02:42;;;;;;;16.65;10.65;;;;;;;21.09;64.70;101037.72;5061807;28;20128;-73
2021/11/01 13:05:16;;;;;;;16.65;10.82;;;;;;;20.94;65.06;101044.31;5053852;28;20049;-74
2021/11/01 13:07:54;;;;;;;17.77;11.60;;;;;;;20.83;65.24;101050.84;5045814;28;20449;-74
2021/11/01 13:10:26;;;;;;;18.88;11.80;;;;;;;20.77;65.42;101057.22;5049623;28;20401;-74
2021/11/01 13:18:52;;;;;;;18.40;12.18;;;;;;;20.60;65.60;101062.06;5047482;28;20036;-73
2021/11/01 13:21:21;;;;;;;19.15;11.68;;;;;;;20.54;65.80;101055.03;5047426;28;20043;-74
2021/11/01 13:24:00;;;;;;;22.08;10.85;;;;;;;20.51;65.95;101067.63;5045603;28;20408;-74
2021/11/01 13:26:38;;;;;;;18.67;11.27;;;;;;;20.47;65.91;101058.75;5047165;28;20512;-73
2021/11/01 13:35:01;;;;;;;;;;;;;;;20.51;65.81;101060.47;5046718;28;20501;-73
2021/11/01 13:37:31;;;;;;;17.52;11.15;;;;;;;20.50;65.70;101050.63;5045378;28;20004;-74
2021/11/01 13:40:03;;;;;;;19.60;11.65;;;;;;;20.47;65.82;101058.75;5047070;28;20059;-74
2021/11/01 13:42:32;;;;;;;18.70;11.27;;;;;;;20.36;66.45;101057.19;5044587;28;20497;-74
2021/11/01 13:45:11;;;;;;;23.10;12.13;;;;;;;20.35;66.33;101068.84;5036607;28;20068;-74
2021/11/01 13:47:46;;;;;;;19.80;11.95;;;;;;;20.36;66.13;101074.16;5044080;28;20583;-75
2021/11/01 13:50:16;;;;;;;17.10;11.18;;;;;;;20.43;65.98;101074.94;5040489;28;20515;-74
2021/11/01 13:52:45;;;;;;;20.38;11.77;;;;;;;20.38;65.86;101083.06;5046141;28;20041;-73
2021/11/01 13:55:23;;;;;;;17.33;10.63;;;;;;;20.38;65.87;101077.72;5043902;28;20136;-74
2021/11/01 13:57:56;;;;;;;18.75;11.73;;;;;;;20.42;65.86;101086.56;5046902;28;20029;-73
2021/11/01 14:11:49;;;;;;;19.58;11.02;;;;;;;20.29;65.82;101073.38;5046719;28;19924;-73
2021/11/01 14:14:31;;;;;;;22.45;11.95;;;;;;;20.18;66.01;101077.16;5044329;28;20493;-75
2021/11/01 14:17:05;;;;;;;17.23;12.10;;;;;;;20.19;66.18;101077.16;5041298;28;20037;-74
2021/11/01 14:31:13;;;;;;;17.75;11.15;;;;;;;19.91;66.67;101078.56;5042768;28;20052;-74
2021/11/01 15:13:15;;;;;;;22.13;14.80;;;;;;;19.36;67.40;101098.16;5041862;28;20125;-74
2021/11/01 15:15:55;;;;;;;27.08;14.50;;;;;;;19.36;67.49;101106.19;5036162;28;20119;-75
2021/11/01 15:21:17;;;;;;;21.08;12.40;;;;;;;19.28;67.75;101110.81;5010884;28;20052;-75
2021/11/01 15:26:52;;;;;;;20.55;12.73;;;;;;;19.27;67.49;101114.38;5037980;28;20098;-75
2021/11/01 15:32:41;;;;;;;22.23;13.45;;;;;;;19.22;67.32;101116.25;5046342;28;20049;-74
2021/11/01 15:38:21;;;;;;;24.08;13.63;;;;;;;19.13;67.34;101115.47;5039935;28;20045;-74
2021/11/01 16:20:03;;;;;;;26.27;15.00;;;;;;;18.09;71.50;101143.38;5069042;28;20495;-74
2021/11/01 16:22:31;;;;;;;24.90;13.48;;;;;;;18.07;71.47;101145.19;5070500;28;20845;-76
2021/11/01 16:25:00;;;;;;;29.08;16.65;;;;;;;18.14;71.01;101146.91;5071627;28;20032;-76
2021/11/01 16:27:29;;;;;;;25.55;16.27;;;;;;;18.15;70.96;101153.13;5053026;28;20113;-76
2021/11/01 16:30:00;;;;;;;20.85;12.35;;;;;;;18.08;71.01;101152.28;5056510;28;20124;-75
2021/11/01 16:32:33;;;;;;;21.30;13.32;;;;;;;17.91;71.74;101152.44;5070362;28;20089;-76
2021/11/01 16:35:06;;;;;;;23.73;12.27;;;;;;;17.73;72.98;101154.34;5054506;28;20037;-74
2021/11/01 16:37:38;;;;;;;25.50;13.98;;;;;;;17.59;73.43;101158.91;5054125;28;20067;-75
2021/11/01 16:40:10;;;;;;;24.23;12.68;;;;;;;17.54;73.69;101153.56;5066555;28;20041;-71
2021/11/01 16:42:46;;;;;;;21.05;14.38;;;;;;;17.49;73.94;101166.97;5064790;28;20041;-75
2021/11/01 16:45:21;;;;;;;21.92;13.07;;;;;;;17.51;73.68;101164.28;5065459;28;20132;-74
2021/11/01 16:47:50;;;;;;;23.05;13.10;;;;;;;17.51;73.68;101169.63;5067470;28;20504;-73
2021/11/01 16:50:20;;;;;;;22.65;12.20;;;;;;;17.49;73.62;101166.06;5046045;28;20036;-74
2021/11/01 16:52:50;;;;;;;21.25;13.00;;;;;;;17.52;73.49;101172.25;5065240;28;20045;-74
2021/11/01 16:55:21;;;;;;;23.20;11.52;;;;;;;17.57;73.19;101174.91;5048979;28;20523;-75
2021/11/01 16:57:54;;;;;;;22.90;11.68;;;;;;;17.53;72.96;101173.16;5067746;28;20164;-74
2021/11/01 17:00:28;;;;;;;26.80;13.87;;;;;;;17.51;72.93;101167.84;5069569;28;20047;-74
2021/11/01 17:03:08;;;;;;;21.50;12.50;;;;;;;17.56;72.68;101164.25;5065634;28;20076;-76
2021/11/01 17:22:19;;;;;;;26.67;15.30;;;;;;;17.42;72.84;101178.56;5055441;28;20036;-74
2021/11/01 17:24:51;;;;;;;23.90;12.55;;;;;;;17.38;72.94;101183.94;5058112;28;20098;-75
2021/11/01 18:40:57;;;;;;;23.42;12.88;;;;;;;16.79;75.59;101218.84;4959107;28;20050;-73
2021/11/01 18:50:48;;;;;;;23.52;12.43;;;;;;;16.72;76.00;101226.88;5018172;28;20056;-73
2021/11/01 18:52:30;;;;;;;22.15;10.88;;;;;;;16.77;76.14;101225.97;5037074;28;20497;-73
2021/11/01 18:55:04;;;;;;;17.33;10.45;;;;;;;16.74;76.52;101234.84;5056193;28;20040;-74
2021/11/01 18:57:34;;;;;;;21.73;12.60;;;;;;;16.70;76.86;101233.97;5035593;28;20040;-72
2021/11/01 19:00:05;;;;;;;19.17;11.20;;;;;;;16.78;76.69;101239.31;5056722;28;20168;-76
2021/11/01 19:02:45;;;;;;;19.15;10.95;;;;;;;16.84;76.33;101231.28;5054212;28;20056;-74
2021/11/01 19:05:26;;;;;;;17.98;10.23;;;;;;;16.78;76.72;101235.75;5036872;28;20390;-74
2021/11/01 19:08:04;;;;;;;20.67;11.40;;;;;;;16.64;77.74;101236.66;5038454;28;20041;-73
2021/11/01 19:11:09;;;;;;;24.70;12.38;;;;;;;16.61;78.18;101241.09;5037119;28;20249;-73
2021/11/01 20:04:06;;;;;;;22.73;13.55;;;;;;;16.25;77.48;101239.31;5054841;28;20122;-74